createdAt,value
2022-10-14T00:01:19.148Z,98876.91
2022-10-14T00:03:47.751Z,98878.34
2022-10-14T00:06:19.950Z,98874.38
2022-10-14T00:08:48.338Z,98872.03
2022-10-14T00:11:20.395Z,98868.25
2022-10-14T00:13:48.763Z,98865.31
2022-10-14T00:16:19.235Z,98868.88
2022-10-14T00:18:47.212Z,98867.84
2022-10-14T00:21:15.733Z,98865.72
2022-10-14T00:23:44.035Z,98866.63
2022-10-14T00:26:18.780Z,98863.69
2022-10-14T00:28:47.186Z,98863.66
2022-10-14T00:31:15.833Z,98865.34
2022-10-14T00:33:45.443Z,98869.09
2022-10-14T00:36:14.867Z,98868.41
2022-10-14T00:38:43.242Z,98874.31
2022-10-14T00:41:20.768Z,98877.41
2022-10-14T00:43:58.278Z,98875.16
2022-10-14T00:46:27.913Z,98863.19
2022-10-14T00:49:04.698Z,98866.25
2022-10-14T00:51:32.783Z,98865.16
2022-10-14T00:54:03.004Z,98862.69
2022-10-14T00:56:32.745Z,98873.06
2022-10-14T00:59:01.796Z,98868.53
2022-10-14T01:01:29.530Z,98865.56
2022-10-14T01:03:59.427Z,98872.03
2022-10-14T01:06:42.493Z,98868.41
2022-10-14T01:09:23.632Z,98871.25
2022-10-14T01:12:27.023Z,98862.97
2022-10-14T01:14:59.832Z,98865.41
2022-10-14T01:17:36.712Z,98874.78
2022-10-14T01:20:28.716Z,98856.41
2022-10-14T01:23:09.055Z,98859.81
2022-10-14T01:25:50.477Z,98860.91
2022-10-14T01:28:27.292Z,98859.81
2022-10-14T01:31:01.864Z,98854.13
2022-10-14T01:33:36.864Z,98856.31
2022-10-14T01:36:11.073Z,98860.81
2022-10-14T01:38:42.545Z,98851.03
2022-10-14T01:41:15.738Z,98852.69
2022-10-14T01:43:47.351Z,98853.09
2022-10-14T01:46:20.980Z,98856.88
2022-10-14T01:48:53.420Z,98844.22
2022-10-14T01:51:24.732Z,98849.56
2022-10-14T01:53:57.732Z,98851.34
2022-10-14T01:56:28.326Z,98849.59
2022-10-14T01:58:57.274Z,98846.56
2022-10-14T02:01:26.625Z,98852.13
2022-10-14T02:03:54.650Z,98855.47
2022-10-14T02:06:26.162Z,98856.28
2022-10-14T02:09:04.173Z,98861.63
2022-10-14T02:11:38.984Z,98853.22
2022-10-14T02:14:14.185Z,98858.91
2022-10-14T02:16:50.990Z,98863.16
2022-10-14T02:19:28.100Z,98861.63
2022-10-14T02:22:03.009Z,98861.47
2022-10-14T02:24:36.461Z,98857.03
2022-10-14T02:27:10.795Z,98861.91
2022-10-14T02:29:43.633Z,98856.03
2022-10-14T02:32:16.179Z,98856.56
2022-10-14T02:34:46.538Z,98854.22
2022-10-14T02:37:16.922Z,98850.84
2022-10-14T02:39:50.423Z,98844.66
2022-10-14T02:42:18.245Z,98841.00
2022-10-14T02:44:55.831Z,98842.72
2022-10-14T02:47:25.013Z,98843.53
2022-10-14T02:49:53.429Z,98835.97
2022-10-14T02:52:25.168Z,98834.81
2022-10-14T02:54:54.459Z,98829.72
2022-10-14T02:57:23.330Z,98831.13
2022-10-14T02:59:51.283Z,98819.88
2022-10-14T03:02:19.399Z,98808.09
2022-10-14T03:04:49.754Z,98807.25
2022-10-14T03:07:18.102Z,98807.91
2022-10-14T03:09:49.842Z,98799.28
2022-10-14T03:12:18.660Z,98797.59
2022-10-14T03:14:46.569Z,98785.00
2022-10-14T03:17:17.473Z,98793.22
2022-10-14T03:19:46.338Z,98790.50
2022-10-14T03:22:17.911Z,98783.75
2022-10-14T03:24:45.950Z,98784.41
2022-10-14T03:27:40.195Z,98779.22
2022-10-14T03:30:12.750Z,98777.25
2022-10-14T03:32:52.102Z,98777.50
2022-10-14T03:35:23.072Z,98777.22
2022-10-14T03:37:59.312Z,98782.25
2022-10-14T03:40:31.663Z,98776.34
2022-10-14T03:43:02.121Z,98767.13
2022-10-14T03:45:37.994Z,98769.84
2022-10-14T03:48:07.055Z,98764.06
2022-10-14T03:50:39.702Z,98767.09
2022-10-14T03:53:10.834Z,98759.47
2022-10-14T03:55:40.937Z,98757.38
2022-10-14T03:58:10.897Z,98752.31
2022-10-14T04:00:38.795Z,98755.63
2022-10-14T04:03:20.024Z,98745.06
2022-10-14T04:05:47.766Z,98745.44
2022-10-14T04:08:20.553Z,98741.66
2022-10-14T04:10:55.661Z,98744.16
2022-10-14T04:13:24.684Z,98737.41
2022-10-14T04:15:52.488Z,98734.81
2022-10-14T04:18:24.767Z,98732.56
2022-10-14T04:20:56.118Z,98728.59
2022-10-14T04:23:27.621Z,98721.75
2022-10-14T04:26:04.626Z,98724.94
2022-10-14T04:28:33.151Z,98717.69
2022-10-14T04:31:09.288Z,98717.53
2022-10-14T04:33:49.210Z,98727.09
2022-10-14T04:36:23.041Z,98728.59
2022-10-14T04:38:52.159Z,98722.97
2022-10-14T04:41:20.059Z,98724.63
2022-10-14T04:43:49.988Z,98724.34
2022-10-14T04:46:25.040Z,98722.69
2022-10-14T04:48:53.009Z,98715.97
2022-10-14T04:51:23.568Z,98707.63
2022-10-14T04:54:18.675Z,98711.16
2022-10-14T04:56:52.024Z,98708.84
2022-10-14T04:59:20.734Z,98707.78
2022-10-14T05:02:08.760Z,98705.44
2022-10-14T05:04:44.480Z,98705.09
2022-10-14T05:07:12.959Z,98699.94
2022-10-14T05:09:46.300Z,98692.31
2022-10-14T05:12:27.588Z,98691.13
2022-10-14T05:15:00.317Z,98684.81
2022-10-14T05:17:36.464Z,98685.91
2022-10-14T05:20:05.204Z,98686.16
2022-10-14T05:22:33.628Z,98671.19
2022-10-14T05:25:03.123Z,98677.59
2022-10-14T05:27:31.438Z,98675.03
2022-10-14T05:30:03.666Z,98673.66
2022-10-14T05:32:32.172Z,98671.09
2022-10-14T05:35:06.715Z,98670.81
2022-10-14T05:37:38.748Z,98663.50
2022-10-14T05:40:11.211Z,98661.50
2022-10-14T05:42:39.235Z,98660.44
2022-10-14T05:45:07.936Z,98658.56
2022-10-14T05:47:39.638Z,98665.66
2022-10-14T05:50:15.112Z,98663.13
2022-10-14T05:52:45.426Z,98662.13
2022-10-14T05:55:26.355Z,98662.50
2022-10-14T05:57:59.116Z,98663.56
2022-10-14T06:00:33.038Z,98661.00
2022-10-14T06:03:05.936Z,98662.00
2022-10-14T06:05:36.844Z,98655.72
2022-10-14T06:08:05.003Z,98653.22
2022-10-14T06:10:37.223Z,98656.38
2022-10-14T06:13:05.250Z,98650.81
2022-10-14T06:15:36.241Z,98648.84
2022-10-14T06:18:04.344Z,98656.84
2022-10-14T06:20:33.335Z,98667.69
2022-10-14T06:23:02.208Z,98661.50
2022-10-14T06:25:32.331Z,98666.53
2022-10-14T06:28:05.225Z,98672.34
2022-10-14T06:30:33.024Z,98664.38
2022-10-14T06:33:00.731Z,98667.94
2022-10-14T06:35:28.982Z,98663.16
2022-10-14T06:37:57.435Z,98668.06
2022-10-14T06:40:27.558Z,98663.06
2022-10-14T06:42:55.398Z,98663.56
2022-10-14T06:45:26.935Z,98662.91
2022-10-14T06:47:54.620Z,98659.28
2022-10-14T06:50:22.380Z,98660.47
2022-10-14T06:52:50.124Z,98659.28
2022-10-14T06:55:18.147Z,98657.50
2022-10-14T06:57:45.960Z,98659.03
2022-10-14T07:00:14.517Z,98654.94
2022-10-14T07:02:46.031Z,98653.91
2022-10-14T07:05:13.849Z,98648.38
2022-10-14T07:07:41.627Z,98649.19
2022-10-14T07:10:10.213Z,98659.03
2022-10-14T07:12:38.018Z,98654.22
2022-10-14T07:15:06.494Z,98657.81
2022-10-14T07:17:34.218Z,98648.19
2022-10-14T07:20:03.328Z,98654.34
2022-10-14T07:22:35.033Z,98643.13
2022-10-14T07:25:06.370Z,98657.38
2022-10-14T07:27:34.126Z,98662.91
2022-10-14T07:30:05.362Z,98664.81
2022-10-14T07:32:33.811Z,98670.09
2022-10-14T07:35:02.981Z,98658.31
2022-10-14T07:37:30.681Z,98655.53
2022-10-14T07:39:58.570Z,98665.34
2022-10-14T07:42:26.348Z,98660.16
2022-10-14T07:44:57.610Z,98664.06
2022-10-14T07:47:25.346Z,98664.97
2022-10-14T07:49:53.125Z,98674.28
2022-10-14T07:52:22.318Z,98673.47
2022-10-14T07:54:52.443Z,98670.56
2022-10-14T07:57:20.898Z,98666.94
2022-10-14T07:59:48.844Z,98666.50
2022-10-14T08:02:16.565Z,98667.59
2022-10-14T08:04:44.288Z,98665.22
2022-10-14T08:07:14.203Z,98661.41
2022-10-14T08:09:43.278Z,98656.97
2022-10-14T08:12:11.337Z,98652.84
2022-10-14T08:14:41.509Z,98650.06
2022-10-14T08:17:09.267Z,98650.28
2022-10-14T08:19:37.069Z,98653.72
2022-10-14T08:22:04.805Z,98654.00
2022-10-14T08:24:32.490Z,98648.59
2022-10-14T08:27:01.541Z,98649.44
2022-10-14T08:29:29.462Z,98646.09
2022-10-14T08:31:57.221Z,98645.81
2022-10-14T08:34:27.952Z,98638.94
2022-10-14T08:36:55.732Z,98637.50
2022-10-14T08:39:23.516Z,98641.38
2022-10-14T08:42:16.105Z,98643.25
2022-10-14T08:44:51.020Z,98641.69
2022-10-14T08:47:26.647Z,98633.13
2022-10-14T08:50:02.495Z,98633.00
2022-10-14T08:52:37.216Z,98638.44
2022-10-14T08:55:17.481Z,98630.78
2022-10-14T08:57:55.028Z,98634.66
2022-10-14T09:00:23.621Z,98628.72
2022-10-14T09:02:53.134Z,98631.06
2022-10-14T09:05:23.696Z,98633.91
2022-10-14T09:07:54.745Z,98630.69
2022-10-14T09:10:30.112Z,98632.13
2022-10-14T09:13:10.916Z,98630.28
2022-10-14T09:15:42.177Z,98627.94
2022-10-14T09:18:22.483Z,98625.78
2022-10-14T09:20:50.707Z,98625.59
2022-10-14T09:23:20.092Z,98624.53
2022-10-14T09:25:56.817Z,98624.59
2022-10-14T09:28:34.536Z,98622.81
2022-10-14T09:31:02.477Z,98622.59
2022-10-14T09:33:30.430Z,98612.88
2022-10-14T09:38:27.938Z,98618.56
2022-10-14T09:40:59.262Z,98616.09
2022-10-14T09:43:29.741Z,98619.28
2022-10-14T09:46:00.581Z,98614.91
2022-10-14T09:48:37.401Z,98608.69
2022-10-14T09:51:08.808Z,98610.22
2022-10-14T09:53:41.143Z,98608.53
2022-10-14T09:56:11.227Z,98607.53
2022-10-14T09:58:47.021Z,98599.50
2022-10-14T10:01:20.490Z,98598.16
2022-10-14T10:03:50.325Z,98599.00
2022-10-14T10:06:21.366Z,98591.84
2022-10-14T10:08:58.014Z,98590.16
2022-10-14T10:11:30.428Z,98587.00
2022-10-14T10:14:16.827Z,98585.13
2022-10-14T10:16:44.859Z,98581.53
2022-10-14T10:19:28.160Z,98580.72
2022-10-14T10:22:16.743Z,98571.38
2022-10-14T10:24:45.365Z,98571.97
2022-10-14T10:27:21.768Z,98557.28
2022-10-14T10:29:51.039Z,98557.00
2022-10-14T10:32:30.162Z,98565.53
2022-10-14T10:35:20.947Z,98558.59
2022-10-14T10:38:06.707Z,98556.19
2022-10-14T10:40:41.184Z,98551.56
2022-10-14T10:43:38.309Z,98546.91
2022-10-14T10:46:25.611Z,98537.91
2022-10-14T10:49:01.650Z,98529.25
2022-10-14T10:51:35.599Z,98525.34
2022-10-14T10:54:09.140Z,98519.00
2022-10-14T10:56:43.733Z,98515.94
2022-10-14T10:59:33.616Z,98516.31
2022-10-14T11:02:34.113Z,98514.75
2022-10-14T11:05:11.163Z,98511.59
2022-10-14T11:08:08.906Z,98513.63
2022-10-14T11:11:06.706Z,98511.84
2022-10-14T11:13:46.472Z,98505.84
2022-10-14T11:16:20.017Z,98507.72
2022-10-14T11:18:51.856Z,98493.22
2022-10-14T11:21:30.598Z,98498.81
2022-10-14T11:24:06.852Z,98505.28
2022-10-14T11:26:53.728Z,98505.97
2022-10-14T11:29:39.778Z,98516.16
2022-10-14T11:32:16.353Z,98514.50
2022-10-14T11:34:54.075Z,98509.81
2022-10-14T11:37:30.351Z,98502.44
2022-10-14T11:40:01.617Z,98497.44
2022-10-14T11:42:49.892Z,98494.06
2022-10-14T11:45:41.259Z,98485.19
2022-10-14T11:48:19.742Z,98492.88
2022-10-14T11:50:56.417Z,98488.25
2022-10-14T11:56:29.172Z,98477.41
2022-10-14T11:59:03.170Z,98462.28
2022-10-14T12:01:49.159Z,98466.31
2022-10-14T12:04:25.645Z,98465.53
2022-10-14T12:07:04.507Z,98455.69
2022-10-14T12:09:39.807Z,98446.34
2022-10-14T12:12:12.708Z,98442.63
2022-10-14T12:14:45.925Z,98437.91
2022-10-14T12:17:22.184Z,98445.97
2022-10-14T12:19:51.233Z,98438.00
2022-10-14T12:22:23.941Z,98437.94
2022-10-14T12:24:54.044Z,98443.72
2022-10-14T12:27:23.901Z,98438.00
2022-10-14T12:29:55.621Z,98434.81
2022-10-14T12:32:26.297Z,98423.06
2022-10-14T12:34:55.535Z,98429.44
2022-10-14T12:37:52.832Z,98415.28
2022-10-14T12:40:31.582Z,98418.19
2022-10-14T12:43:21.560Z,98406.81
2022-10-14T12:45:55.763Z,98410.47
2022-10-14T12:48:25.271Z,98409.91
2022-10-14T12:50:58.997Z,98403.72
2022-10-14T12:53:32.776Z,98403.69
2022-10-14T12:56:02.371Z,98395.03
2022-10-14T12:58:36.209Z,98394.88
2022-10-14T13:01:07.870Z,98405.66
2022-10-14T13:03:47.118Z,98392.59
2022-10-14T13:06:42.232Z,98400.16
2022-10-14T13:09:41.693Z,98388.97
2022-10-14T13:12:40.892Z,98390.00
2022-10-14T13:16:00.694Z,98384.22
2022-10-14T13:18:52.857Z,98399.84
2022-10-14T13:21:54.128Z,98399.84
2022-10-14T13:24:27.631Z,98395.75
2022-10-14T13:27:09.082Z,98392.69
2022-10-14T13:29:57.584Z,98378.72
2022-10-14T13:32:35.014Z,98393.19
2022-10-14T13:35:15.094Z,98376.13
2022-10-14T13:37:46.594Z,98376.06
2022-10-14T13:40:23.753Z,98377.69
2022-10-14T13:42:56.152Z,98380.78
2022-10-14T13:45:31.774Z,98385.38
2022-10-14T13:47:59.826Z,98381.16
2022-10-14T13:50:36.574Z,98383.50
2022-10-14T13:53:07.952Z,98388.16
2022-10-14T13:55:44.920Z,98381.69
2022-10-14T13:58:16.412Z,98387.56
2022-10-14T14:00:52.984Z,98390.22
2022-10-14T14:03:25.540Z,98389.13
2022-10-14T14:05:54.550Z,98389.41
2022-10-14T14:08:43.141Z,98381.25
2022-10-14T14:11:19.200Z,98381.38
2022-10-14T14:14:00.283Z,98378.16
2022-10-14T14:16:33.569Z,98375.78
2022-10-14T14:19:08.864Z,98370.41
2022-10-14T14:21:37.699Z,98365.63
2022-10-14T14:24:18.876Z,98373.28
2022-10-14T14:26:54.846Z,98363.38
2022-10-14T14:29:28.732Z,98361.00
2022-10-14T14:32:07.229Z,98367.16
2022-10-14T14:34:37.414Z,98374.19
2022-10-14T14:37:25.179Z,98365.84
2022-10-14T14:39:58.721Z,98371.00
2022-10-14T14:42:28.317Z,98376.03
2022-10-14T14:45:03.923Z,98372.75
2022-10-14T14:47:32.692Z,98358.19
2022-10-14T14:50:25.553Z,98358.13
2022-10-14T14:52:51.476Z,98358.25
2022-10-14T14:55:37.090Z,98350.72
2022-10-14T14:58:07.582Z,98357.53
2022-10-14T15:00:36.714Z,98359.88
2022-10-14T15:03:06.532Z,98358.06
2022-10-14T15:05:34.580Z,98355.09
2022-10-14T15:08:03.559Z,98355.03
2022-10-14T15:10:31.897Z,98356.22
2022-10-14T15:13:02.629Z,98350.56
2022-10-14T15:15:34.915Z,98352.06
2022-10-14T15:18:16.468Z,98357.19
2022-10-14T15:20:44.427Z,98361.69
2022-10-14T15:23:40.909Z,98373.50
2022-10-14T15:26:22.931Z,98366.31
2022-10-14T15:29:16.580Z,98357.16
2022-10-14T15:31:46.389Z,98360.66
2022-10-14T15:34:23.162Z,98359.94
2022-10-14T15:36:53.949Z,98343.97
2022-10-14T15:39:22.689Z,98343.72
2022-10-14T15:41:50.531Z,98348.25
2022-10-14T15:44:18.259Z,98337.25
2022-10-14T15:47:04.729Z,98340.56
2022-10-14T15:49:40.059Z,98340.13
2022-10-14T15:52:08.297Z,98339.16
2022-10-14T15:54:36.017Z,98340.00
2022-10-14T15:57:05.873Z,98339.84
2022-10-14T15:59:36.034Z,98343.97
2022-10-14T16:02:05.135Z,98340.59
2022-10-14T16:04:35.201Z,98343.72
2022-10-14T16:07:03.102Z,98325.16
2022-10-14T16:09:31.175Z,98326.31
2022-10-14T16:12:00.944Z,98328.00
2022-10-14T16:14:29.021Z,98326.56
2022-10-14T16:16:58.262Z,98324.22
2022-10-14T16:19:26.300Z,98322.69
2022-10-14T16:21:55.663Z,98332.72
2022-10-14T16:24:25.544Z,98324.91
2022-10-14T16:26:53.874Z,98330.28
2022-10-14T16:29:22.415Z,98339.97
2022-10-14T16:31:50.967Z,98342.03
2022-10-14T16:34:19.683Z,98341.16
2022-10-14T16:36:48.772Z,98344.38
2022-10-14T16:39:19.219Z,98346.97
2022-10-14T16:41:48.338Z,98343.28
2022-10-14T16:44:25.233Z,98338.91
2022-10-14T16:47:11.387Z,98339.28
2022-10-14T16:49:39.802Z,98339.63
2022-10-14T16:52:08.935Z,98343.44
2022-10-14T16:54:38.201Z,98336.91
2022-10-14T16:57:06.463Z,98338.91
2022-10-14T16:59:34.359Z,98343.56
2022-10-14T17:02:02.253Z,98344.72
2022-10-14T17:04:30.031Z,98347.22
2022-10-14T17:07:07.177Z,98350.88
2022-10-14T17:09:36.067Z,98351.88
2022-10-14T17:12:09.631Z,98351.59
2022-10-14T17:14:42.979Z,98345.09
2022-10-14T17:17:12.366Z,98335.34
2022-10-14T17:19:40.178Z,98336.00
2022-10-14T17:22:07.852Z,98348.81
2022-10-14T17:24:35.640Z,98342.56
2022-10-14T17:27:05.311Z,98336.47
2022-10-14T17:29:33.395Z,98319.38
2022-10-14T17:32:01.091Z,98322.44
2022-10-14T17:34:28.781Z,98319.56
2022-10-14T17:37:00.650Z,98321.75
2022-10-14T17:39:29.758Z,98323.72
2022-10-14T17:41:57.837Z,98328.41
2022-10-14T17:44:28.682Z,98321.06
2022-10-14T17:46:56.881Z,98329.38
2022-10-14T17:49:24.670Z,98329.38
2022-10-14T17:51:52.731Z,98342.78
2022-10-14T17:54:21.007Z,98332.44
2022-10-14T17:56:48.905Z,98336.13
2022-10-14T17:59:16.623Z,98332.97
2022-10-14T18:04:33.653Z,98334.19
2022-10-14T18:07:01.618Z,98340.75
2022-10-14T18:09:29.494Z,98331.84
2022-10-14T18:12:13.427Z,98332.94
2022-10-14T18:14:42.161Z,98327.56
2022-10-14T18:17:12.958Z,98331.59
2022-10-14T18:19:41.769Z,98316.53
2022-10-14T18:22:10.959Z,98324.97
2022-10-14T18:24:39.233Z,98316.47
2022-10-14T18:27:07.074Z,98317.03
2022-10-14T18:29:34.775Z,98312.19
2022-10-14T18:32:02.598Z,98305.66
2022-10-14T18:34:32.117Z,98309.72
2022-10-14T18:36:59.931Z,98301.88
2022-10-14T18:39:27.748Z,98298.69
2022-10-14T18:41:55.504Z,98297.84
2022-10-14T18:44:25.636Z,98291.66
2022-10-14T18:46:53.403Z,98287.16
2022-10-14T18:49:21.081Z,98287.50
2022-10-14T18:51:50.529Z,98288.63
2022-10-14T18:54:20.118Z,98289.41
2022-10-14T18:56:48.621Z,98282.75
2022-10-14T18:59:18.760Z,98275.72
2022-10-14T19:01:47.714Z,98279.69
2022-10-14T19:04:16.632Z,98274.28
2022-10-14T19:06:48.765Z,98269.44
2022-10-14T19:09:21.288Z,98265.03
2022-10-14T19:11:51.900Z,98258.34
2022-10-14T19:14:20.660Z,98260.09
2022-10-14T19:16:49.619Z,98256.28
2022-10-14T19:19:20.078Z,98245.94
2022-10-14T19:21:50.821Z,98246.41
2022-10-14T19:24:20.135Z,98243.16
2022-10-14T19:26:48.840Z,98246.75
2022-10-14T19:29:17.075Z,98229.59
2022-10-14T19:31:45.088Z,98238.94
2022-10-14T19:34:14.910Z,98235.03
2022-10-14T19:36:45.865Z,98223.06
2022-10-14T19:39:15.655Z,98226.25
2022-10-14T19:41:46.435Z,98223.28
2022-10-14T19:44:15.799Z,98227.25
2022-10-14T19:46:44.242Z,98220.63
2022-10-14T19:49:13.567Z,98212.94
2022-10-14T19:51:41.603Z,98214.22
2022-10-14T19:54:11.751Z,98213.75
2022-10-14T19:56:39.602Z,98212.31
2022-10-14T19:59:09.007Z,98208.50
2022-10-14T20:01:37.162Z,98201.38
2022-10-14T20:04:04.935Z,98200.16
2022-10-14T20:06:34.300Z,98194.09
2022-10-14T20:09:05.084Z,98191.13
2022-10-14T20:11:32.849Z,98191.41
2022-10-14T20:14:00.721Z,98182.34
2022-10-14T20:16:30.023Z,98184.63
2022-10-14T20:18:57.762Z,98173.81
2022-10-14T20:21:26.280Z,98181.06
2022-10-14T20:23:53.987Z,98181.00
2022-10-14T20:26:23.001Z,98177.75
2022-10-14T20:28:54.428Z,98173.97
2022-10-14T20:31:26.115Z,98172.44
2022-10-14T20:33:56.039Z,98175.94
2022-10-14T20:36:24.198Z,98166.56
2022-10-14T20:38:52.214Z,98171.91
2022-10-14T20:41:22.070Z,98165.66
2022-10-14T20:43:50.167Z,98159.38
2022-10-14T20:46:21.848Z,98157.97
2022-10-14T20:48:53.635Z,98155.56
2022-10-14T20:51:25.263Z,98151.84
2022-10-14T20:54:01.667Z,98152.50
2022-10-14T20:56:33.681Z,98151.66
2022-10-14T20:59:03.285Z,98151.63
2022-10-14T21:01:31.645Z,98149.34
2022-10-14T21:04:01.459Z,98143.31
2022-10-14T21:06:32.826Z,98137.34
2022-10-14T21:09:01.387Z,98136.44
2022-10-14T21:11:29.424Z,98138.25
2022-10-14T21:13:59.079Z,98137.41
2022-10-14T21:16:29.175Z,98135.31
2022-10-14T21:18:58.537Z,98129.13
2022-10-14T21:21:28.638Z,98130.28
2022-10-14T21:23:59.195Z,98128.00
2022-10-14T21:26:26.978Z,98120.00
2022-10-14T21:28:57.016Z,98111.16
2022-10-14T21:31:27.758Z,98112.00
2022-10-14T21:33:59.922Z,98111.72
2022-10-14T21:36:30.846Z,98103.09
2022-10-14T21:39:01.121Z,98101.06
2022-10-14T21:41:29.431Z,98093.13
2022-10-14T21:43:59.233Z,98095.34
2022-10-14T21:46:27.796Z,98090.00
2022-10-14T21:48:57.521Z,98084.44
2022-10-14T21:51:26.700Z,98084.28
2022-10-14T21:53:55.039Z,98078.81
2022-10-14T21:56:24.571Z,98076.81
2022-10-14T21:58:52.742Z,98072.66
2022-10-14T22:01:22.755Z,98073.81
2022-10-14T22:03:54.320Z,98068.28
2022-10-14T22:06:22.083Z,98073.47
2022-10-14T22:08:54.622Z,98063.81
2022-10-14T22:11:26.863Z,98060.13
2022-10-14T22:13:55.770Z,98065.63
2022-10-14T22:16:24.254Z,98052.44
2022-10-14T22:18:53.772Z,98054.25
2022-10-14T22:21:26.127Z,98056.78
2022-10-14T22:23:53.943Z,98047.47
2022-10-14T22:26:27.100Z,98045.78
2022-10-14T22:29:01.699Z,98045.28
2022-10-14T22:31:33.119Z,98039.13
2022-10-14T22:34:01.308Z,98035.94
2022-10-14T22:36:30.090Z,98029.28
2022-10-14T22:38:59.752Z,98033.44
2022-10-14T22:41:35.140Z,98039.78
2022-10-14T22:44:04.813Z,98030.44
2022-10-14T22:46:37.824Z,98024.56
2022-10-14T22:49:06.079Z,98015.94
2022-10-14T22:51:35.986Z,98009.94
2022-10-14T22:54:04.554Z,98018.59
2022-10-14T22:56:33.792Z,98014.28
2022-10-14T22:59:03.143Z,98015.41
2022-10-14T23:01:31.885Z,98005.38
2022-10-14T23:04:00.915Z,98014.44
2022-10-14T23:06:29.429Z,98000.44
2022-10-14T23:08:59.810Z,98007.09
2022-10-14T23:11:28.503Z,98005.59
2022-10-14T23:13:59.153Z,97994.06
2022-10-14T23:16:29.812Z,98002.91
2022-10-14T23:18:59.675Z,97991.75
2022-10-14T23:21:31.880Z,97987.88
2022-10-14T23:24:03.746Z,97992.06
2022-10-14T23:26:33.170Z,97985.06
2022-10-14T23:29:04.396Z,98000.09
2022-10-14T23:31:34.041Z,97984.56
2022-10-14T23:34:03.493Z,97982.03
2022-10-14T23:36:31.255Z,97978.69
2022-10-14T23:38:59.395Z,97975.34
2022-10-14T23:41:27.133Z,97983.34
2022-10-14T23:43:56.664Z,97979.34
2022-10-14T23:46:25.822Z,97984.03
2022-10-14T23:49:06.604Z,97980.66
2022-10-14T23:51:36.174Z,97983.00
2022-10-14T23:54:04.089Z,97973.63
2022-10-14T23:56:31.914Z,97973.00
2022-10-14T23:58:59.654Z,97969.41
